createdAt,value
2023-03-10T00:00:00.518Z,93749.63
2023-03-10T00:02:30.864Z,93753.41
2023-03-10T00:04:58.614Z,93740.31
2023-03-10T00:07:27.708Z,93730.63
2023-03-10T00:09:55.347Z,93728.34
2023-03-10T00:12:23.327Z,93734.81
2023-03-10T00:14:50.946Z,93721.97
2023-03-10T00:17:18.545Z,93718.44
2023-03-10T00:19:46.193Z,93718.84
2023-03-10T00:22:13.826Z,93702.25
2023-03-10T00:24:43.053Z,93695.47
2023-03-10T00:27:10.684Z,93691.63
2023-03-10T00:29:39.279Z,93687.00
2023-03-10T00:32:07.979Z,93694.00
2023-03-10T00:34:35.668Z,93691.22
2023-03-10T00:37:06.301Z,93697.72
2023-03-10T00:39:33.935Z,93680.44
2023-03-10T00:42:04.755Z,93685.53
2023-03-10T00:44:35.232Z,93681.25
2023-03-10T00:47:02.925Z,93685.63
2023-03-10T00:49:30.538Z,93665.19
2023-03-10T00:51:58.168Z,93666.31
2023-03-10T00:54:25.820Z,93667.31
2023-03-10T00:56:53.513Z,93663.66
2023-03-10T00:59:22.510Z,93647.38
2023-03-10T01:01:50.195Z,93640.41
2023-03-10T01:04:19.965Z,93638.91
2023-03-10T01:06:47.823Z,93643.13
2023-03-10T01:09:16.067Z,93639.69
2023-03-10T01:11:43.712Z,93635.81
2023-03-10T01:14:13.949Z,93627.03
2023-03-10T01:16:42.952Z,93621.00
2023-03-10T01:19:10.701Z,93611.41
2023-03-10T01:21:40.166Z,93608.75
2023-03-10T01:24:08.975Z,93605.50
2023-03-10T01:26:36.720Z,93598.41
2023-03-10T01:29:04.441Z,93589.94
2023-03-10T01:31:32.101Z,93597.81
2023-03-10T01:34:01.152Z,93588.44
2023-03-10T01:36:29.371Z,93580.09
2023-03-10T01:38:58.209Z,93581.03
2023-03-10T01:41:26.517Z,93576.59
2023-03-10T01:43:57.809Z,93573.22
2023-03-10T01:46:45.919Z,93565.50
2023-03-10T01:49:23.702Z,93557.56
2023-03-10T01:51:56.445Z,93555.16
2023-03-10T01:54:27.220Z,93557.94
2023-03-10T01:56:56.652Z,93548.97
2023-03-10T01:59:27.025Z,93542.06
2023-03-10T02:01:56.274Z,93544.31
2023-03-10T02:04:33.059Z,93533.16
2023-03-10T02:07:02.313Z,93539.91
2023-03-10T02:09:30.614Z,93530.88
2023-03-10T02:11:59.609Z,93519.91
2023-03-10T02:14:27.632Z,93523.66
2023-03-10T02:16:58.582Z,93520.47
2023-03-10T02:19:43.184Z,93513.78
2023-03-10T02:22:15.616Z,93514.34
2023-03-10T02:24:51.041Z,93499.50
2023-03-10T02:27:24.675Z,93500.34
2023-03-10T02:30:00.234Z,93504.44
2023-03-10T02:32:28.565Z,93505.56
2023-03-10T02:34:56.780Z,93499.69
2023-03-10T02:37:26.198Z,93492.47
2023-03-10T02:39:54.944Z,93487.94
2023-03-10T02:42:26.269Z,93475.41
2023-03-10T02:44:55.019Z,93483.69
2023-03-10T02:47:22.688Z,93472.75
2023-03-10T02:49:50.502Z,93472.19
2023-03-10T02:52:26.615Z,93459.91
2023-03-10T02:54:56.956Z,93464.84
2023-03-10T02:57:26.010Z,93469.63
2023-03-10T02:59:53.696Z,93457.31
2023-03-10T03:02:21.351Z,93463.69
2023-03-10T03:04:50.737Z,93455.59
2023-03-10T03:07:18.390Z,93453.44
2023-03-10T03:09:49.241Z,93456.13
2023-03-10T03:12:18.931Z,93457.84
2023-03-10T03:14:48.824Z,93453.25
2023-03-10T03:17:16.542Z,93456.66
2023-03-10T03:19:44.235Z,93444.00
2023-03-10T03:22:11.884Z,93446.97
2023-03-10T03:24:39.536Z,93438.16
2023-03-10T03:27:07.199Z,93439.16
2023-03-10T03:29:35.388Z,93433.97
2023-03-10T03:32:04.682Z,93435.19
2023-03-10T03:34:35.255Z,93434.81
2023-03-10T03:37:02.887Z,93441.13
2023-03-10T03:39:30.632Z,93444.97
2023-03-10T03:41:59.729Z,93447.25
2023-03-10T03:44:27.383Z,93443.50
2023-03-10T03:46:55.016Z,93435.59
2023-03-10T03:49:27.327Z,93447.97
2023-03-10T03:52:00.242Z,93457.03
2023-03-10T03:54:28.068Z,93459.31
2023-03-10T03:56:58.664Z,93469.78
2023-03-10T03:59:27.961Z,93466.03
2023-03-10T04:01:55.642Z,93472.91
2023-03-10T04:04:25.710Z,93482.84
2023-03-10T04:06:54.746Z,93490.13
2023-03-10T04:09:22.519Z,93499.94
2023-03-10T04:11:50.225Z,93552.13
2023-03-10T04:14:17.874Z,93523.16
2023-03-10T04:16:49.236Z,93519.97
2023-03-10T04:19:16.960Z,93526.63
2023-03-10T04:21:44.750Z,93527.09
2023-03-10T04:24:13.799Z,93513.91
2023-03-10T04:26:41.556Z,93504.81
2023-03-10T04:29:10.579Z,93513.94
2023-03-10T04:31:38.291Z,93520.00
2023-03-10T04:34:07.605Z,93518.78
2023-03-10T04:36:35.293Z,93506.50
2023-03-10T04:39:04.981Z,93511.28
2023-03-10T04:41:34.023Z,93503.16
2023-03-10T04:44:01.657Z,93509.44
2023-03-10T04:46:31.709Z,93507.50
2023-03-10T04:48:59.428Z,93503.75
2023-03-10T04:51:27.080Z,93501.38
2023-03-10T04:53:54.763Z,93494.63
2023-03-10T04:56:22.413Z,93502.91
2023-03-10T04:58:51.600Z,93493.06
2023-03-10T05:01:19.917Z,93491.59
2023-03-10T05:03:47.605Z,93488.53
2023-03-10T05:06:17.668Z,93493.41
2023-03-10T05:08:45.408Z,93490.13
2023-03-10T05:11:13.783Z,93492.00
2023-03-10T05:13:41.666Z,93492.59
2023-03-10T05:16:15.501Z,93501.19
2023-03-10T05:18:43.427Z,93488.09
2023-03-10T05:21:11.460Z,93485.31
2023-03-10T05:23:39.188Z,93495.69
2023-03-10T05:26:08.115Z,93498.59
2023-03-10T05:28:35.967Z,93503.34
2023-03-10T05:31:09.787Z,93506.97
2023-03-10T05:33:38.896Z,93498.38
2023-03-10T05:36:11.220Z,93495.22
2023-03-10T05:38:39.364Z,93504.97
2023-03-10T05:41:08.333Z,93498.28
2023-03-10T05:43:36.377Z,93499.97
2023-03-10T05:46:04.145Z,93503.94
2023-03-10T05:48:32.261Z,93501.31
2023-03-10T05:51:03.741Z,93499.50
2023-03-10T05:53:33.159Z,93498.06
2023-03-10T05:56:00.905Z,93501.09
2023-03-10T05:58:28.651Z,93481.81
2023-03-10T06:00:56.332Z,93480.44
2023-03-10T06:03:24.907Z,93466.13
2023-03-10T06:05:52.707Z,93466.44
2023-03-10T06:08:21.789Z,93468.22
2023-03-10T06:10:49.516Z,93469.78
2023-03-10T06:13:20.173Z,93474.59
2023-03-10T06:15:50.844Z,93463.31
2023-03-10T06:18:18.688Z,93477.94
2023-03-10T06:20:47.858Z,93463.31
2023-03-10T06:23:15.958Z,93467.13
2023-03-10T06:25:45.072Z,93460.59
2023-03-10T06:28:13.687Z,93469.03
2023-03-10T06:30:41.459Z,93454.91
2023-03-10T06:33:09.365Z,93453.81
2023-03-10T06:35:37.031Z,93443.94
2023-03-10T06:38:04.681Z,93442.38
2023-03-10T06:40:32.320Z,93436.22
2023-03-10T06:43:01.314Z,93429.59
2023-03-10T06:45:29.033Z,93424.38
2023-03-10T06:47:56.984Z,93435.03
2023-03-10T06:50:24.768Z,93453.63
2023-03-10T06:52:52.450Z,93449.44
2023-03-10T06:55:20.242Z,93437.84
2023-03-10T06:57:47.957Z,93420.78
2023-03-10T07:00:19.394Z,93417.09
2023-03-10T07:02:49.048Z,93414.38
2023-03-10T07:05:16.681Z,93386.81
2023-03-10T07:07:44.435Z,93375.44
2023-03-10T07:10:13.427Z,93378.28
2023-03-10T07:12:41.377Z,93362.38
2023-03-10T07:15:10.042Z,93366.97
2023-03-10T07:17:39.096Z,93361.00
2023-03-10T07:20:08.258Z,93369.06
2023-03-10T07:22:35.943Z,93363.66
2023-03-10T07:25:05.003Z,93373.16
2023-03-10T07:27:32.933Z,93382.19
2023-03-10T07:30:00.663Z,93383.06
2023-03-10T07:32:28.359Z,93388.72
2023-03-10T07:34:57.452Z,93386.03
2023-03-10T07:37:25.165Z,93387.69
2023-03-10T07:39:54.916Z,93390.78
2023-03-10T07:42:22.924Z,93378.06
2023-03-10T07:44:51.050Z,93378.19
2023-03-10T07:47:18.833Z,93371.69
2023-03-10T07:49:47.031Z,93375.94
2023-03-10T07:52:18.166Z,93380.81
2023-03-10T07:54:46.367Z,93382.50
2023-03-10T07:57:14.832Z,93383.59
2023-03-10T07:59:43.685Z,93377.63
2023-03-10T08:02:13.428Z,93368.16
2023-03-10T08:04:41.403Z,93364.53
2023-03-10T08:07:10.211Z,93365.66
2023-03-10T08:09:39.429Z,93351.09
2023-03-10T08:12:08.337Z,93352.34
2023-03-10T08:14:36.577Z,93350.44
2023-03-10T08:17:04.351Z,93346.19
2023-03-10T08:19:32.208Z,93334.38
2023-03-10T08:22:02.071Z,93350.56
2023-03-10T08:24:30.078Z,93336.94
2023-03-10T08:26:59.186Z,93330.31
2023-03-10T08:29:26.860Z,93321.47
2023-03-10T08:31:54.811Z,93321.09
2023-03-10T08:34:23.321Z,93310.25
2023-03-10T08:36:50.984Z,93324.91
2023-03-10T08:39:18.704Z,93316.06
2023-03-10T08:41:49.753Z,93313.19
2023-03-10T08:44:20.062Z,93317.91
2023-03-10T08:46:50.185Z,93319.34
2023-03-10T08:49:19.618Z,93306.34
2023-03-10T08:51:47.616Z,93302.16
2023-03-10T08:54:16.988Z,93303.19
2023-03-10T08:56:44.970Z,93306.91
2023-03-10T08:59:12.856Z,93309.09
2023-03-10T09:01:42.701Z,93321.75
2023-03-10T09:04:10.925Z,93319.81
2023-03-10T09:06:39.320Z,93327.19
2023-03-10T09:09:10.036Z,93320.34
2023-03-10T09:11:39.299Z,93328.78
2023-03-10T09:14:08.868Z,93312.97
2023-03-10T09:16:37.755Z,93322.75
2023-03-10T09:19:06.983Z,93323.56
2023-03-10T09:21:34.983Z,93325.09
2023-03-10T09:24:03.510Z,93320.84
2023-03-10T09:26:35.313Z,93326.97
2023-03-10T09:29:04.468Z,93324.78
2023-03-10T09:31:35.558Z,93315.06
2023-03-10T09:34:04.161Z,93311.63
2023-03-10T09:36:33.680Z,93323.47
2023-03-10T09:39:02.360Z,93319.03
2023-03-10T09:41:42.411Z,93324.31
2023-03-10T09:44:25.963Z,93327.03
2023-03-10T09:47:12.460Z,93318.50
2023-03-10T09:49:44.140Z,93313.34
2023-03-10T09:52:23.833Z,93315.78
2023-03-10T09:55:00.254Z,93325.72
2023-03-10T09:57:29.140Z,93327.59
2023-03-10T10:00:00.177Z,93352.16
2023-03-10T10:02:33.544Z,93371.81
2023-03-10T10:05:04.557Z,93375.44
2023-03-10T10:07:42.924Z,93373.84
2023-03-10T10:10:19.985Z,93373.22
2023-03-10T10:12:52.353Z,93384.38
2023-03-10T10:15:22.413Z,93383.69
2023-03-10T10:18:15.805Z,93397.06
2023-03-10T10:20:50.908Z,93417.25
2023-03-10T10:23:25.434Z,93421.56
2023-03-10T10:25:53.423Z,93447.13
2023-03-10T10:28:26.509Z,93463.75
2023-03-10T10:31:11.217Z,93461.88
2023-03-10T10:33:57.252Z,93481.84
2023-03-10T10:36:26.108Z,93497.00
2023-03-10T10:38:56.864Z,93506.63
2023-03-10T10:41:27.885Z,93526.13
2023-03-10T10:43:58.860Z,93526.53
2023-03-10T10:46:30.092Z,93524.69
2023-03-10T10:49:07.653Z,93496.31
2023-03-10T10:51:39.283Z,93475.38
2023-03-10T10:54:28.240Z,93473.09
2023-03-10T10:56:58.045Z,93471.03
2023-03-10T10:59:30.653Z,93465.41
2023-03-10T11:02:00.225Z,93461.53
2023-03-10T11:04:31.223Z,93451.44
2023-03-10T11:07:13.878Z,93439.34
2023-03-10T11:09:43.645Z,93435.69
2023-03-10T11:12:20.432Z,93429.13
2023-03-10T11:15:02.614Z,93423.72
2023-03-10T11:17:35.907Z,93413.31
2023-03-10T11:20:13.026Z,93409.78
2023-03-10T11:22:45.957Z,93407.69
2023-03-10T11:25:26.626Z,93405.28
2023-03-10T11:28:10.507Z,93396.50
2023-03-10T11:30:39.759Z,93396.66
2023-03-10T11:33:21.122Z,93382.03
2023-03-10T11:35:51.754Z,93385.09
2023-03-10T11:38:28.809Z,93380.22
2023-03-10T11:41:00.348Z,93368.97
2023-03-10T11:43:38.039Z,93352.91
2023-03-10T11:46:14.790Z,93355.25
2023-03-10T11:48:56.782Z,93346.56
2023-03-10T11:51:30.769Z,93345.28
2023-03-10T11:54:04.201Z,93346.94
2023-03-10T11:56:33.248Z,93331.41
2023-03-10T11:59:08.290Z,93336.53
2023-03-10T12:01:41.966Z,93329.47
2023-03-10T12:04:16.179Z,93307.22
2023-03-10T12:06:50.154Z,93335.25
2023-03-10T12:09:28.530Z,93319.91
2023-03-10T12:11:58.131Z,93312.25
2023-03-10T12:14:26.262Z,93308.06
2023-03-10T12:16:55.342Z,93313.41
2023-03-10T12:19:23.005Z,93303.19
2023-03-10T12:22:25.186Z,93298.91
2023-03-10T12:24:54.048Z,93296.53
2023-03-10T12:27:23.093Z,93279.44
2023-03-10T12:29:50.758Z,93299.94
2023-03-10T12:32:47.274Z,93300.59
2023-03-10T12:35:37.282Z,93293.13
2023-03-10T12:38:28.824Z,93298.28
2023-03-10T12:40:57.263Z,93299.88
2023-03-10T12:44:04.568Z,93300.59
2023-03-10T12:46:49.652Z,93308.50
2023-03-10T12:49:28.094Z,93297.19
2023-03-10T12:52:08.256Z,93306.75
2023-03-10T12:54:48.357Z,93295.19
2023-03-10T12:57:20.180Z,93301.88
2023-03-10T12:59:55.964Z,93313.34
2023-03-10T13:02:37.734Z,93304.88
2023-03-10T13:05:08.676Z,93299.84
2023-03-10T13:07:38.085Z,93312.28
2023-03-10T13:10:07.931Z,93304.50
2023-03-10T13:12:48.066Z,93302.94
2023-03-10T13:15:24.782Z,93318.31
2023-03-10T13:17:55.511Z,93323.94
2023-03-10T13:20:24.441Z,93322.72
2023-03-10T13:22:56.676Z,93314.53
2023-03-10T13:25:25.045Z,93271.16
2023-03-10T13:27:54.590Z,93313.97
2023-03-10T13:30:23.753Z,93335.25
2023-03-10T13:32:57.660Z,93340.97
2023-03-10T13:35:31.435Z,93336.28
2023-03-10T13:38:12.208Z,93358.53
2023-03-10T13:40:42.989Z,93348.59
2023-03-10T13:43:35.234Z,93352.53
2023-03-10T13:46:05.416Z,93373.88
2023-03-10T13:48:35.356Z,93371.09
2023-03-10T13:51:09.505Z,93341.00
2023-03-10T13:53:37.249Z,93361.53
2023-03-10T13:56:18.358Z,93347.44
2023-03-10T13:58:47.410Z,93364.06
2023-03-10T14:01:25.094Z,93355.97
2023-03-10T14:03:59.121Z,93355.88
2023-03-10T14:06:29.110Z,93373.91
2023-03-10T14:08:57.123Z,93382.22
2023-03-10T14:11:32.365Z,93369.16
2023-03-10T14:14:00.829Z,93393.16
2023-03-10T14:16:49.037Z,93385.13
2023-03-10T14:19:40.006Z,93377.56
2023-03-10T14:22:26.495Z,93382.31
2023-03-10T14:24:54.176Z,93366.56
2023-03-10T14:27:22.503Z,93397.47
2023-03-10T14:29:52.417Z,93387.31
2023-03-10T14:32:21.039Z,93390.69
2023-03-10T14:34:50.443Z,93379.38
2023-03-10T14:37:18.142Z,93379.13
2023-03-10T14:39:45.938Z,93378.03
2023-03-10T14:42:21.384Z,93387.53
2023-03-10T14:44:50.206Z,93383.53
2023-03-10T14:47:18.958Z,93367.31
2023-03-10T14:49:47.205Z,93385.16
2023-03-10T14:52:18.771Z,93360.66
2023-03-10T14:54:47.274Z,93363.28
2023-03-10T14:57:19.054Z,93357.75
2023-03-10T14:59:47.084Z,93378.97
2023-03-10T15:02:20.568Z,93357.47
2023-03-10T15:04:48.319Z,93402.97
2023-03-10T15:07:17.670Z,93416.84
2023-03-10T15:09:45.533Z,93406.84
2023-03-10T15:12:15.082Z,93424.38
2023-03-10T15:14:45.776Z,93423.13
2023-03-10T15:17:13.729Z,93428.22
2023-03-10T15:19:41.359Z,93423.94
2023-03-10T15:22:09.041Z,93415.16
2023-03-10T15:24:38.124Z,93405.75
2023-03-10T15:27:05.841Z,93430.94
2023-03-10T15:29:33.552Z,93424.53
2023-03-10T15:32:01.623Z,93415.47
2023-03-10T15:34:29.316Z,93423.69
2023-03-10T15:36:56.990Z,93433.06
2023-03-10T15:39:31.490Z,93404.66
2023-03-10T15:42:01.779Z,93446.19
2023-03-10T15:44:29.829Z,93452.78
2023-03-10T15:46:57.584Z,93452.75
2023-03-10T15:49:25.474Z,93459.47
2023-03-10T15:51:53.172Z,93470.47
2023-03-10T15:54:20.853Z,93467.47
2023-03-10T15:56:48.571Z,93466.38
2023-03-10T15:59:18.070Z,93461.47
2023-03-10T16:01:45.817Z,93479.41
2023-03-10T16:04:13.651Z,93467.78
2023-03-10T16:06:41.298Z,93475.91
2023-03-10T16:09:09.211Z,93467.94
2023-03-10T16:11:37.056Z,93473.50
2023-03-10T16:14:05.230Z,93468.75
2023-03-10T16:16:34.425Z,93466.66
2023-03-10T16:19:02.635Z,93480.00
2023-03-10T16:21:30.279Z,93477.75
2023-03-10T16:23:58.264Z,93485.50
2023-03-10T16:26:25.946Z,93484.88
2023-03-10T16:28:55.107Z,93481.38
2023-03-10T16:31:24.698Z,93479.94
2023-03-10T16:33:54.707Z,93478.75
2023-03-10T16:36:24.250Z,93482.25
2023-03-10T16:38:53.564Z,93511.31
2023-03-10T16:41:22.334Z,93497.31
2023-03-10T16:43:51.348Z,93500.63
2023-03-10T16:46:24.931Z,93504.59
2023-03-10T16:48:55.874Z,93520.66
2023-03-10T16:51:28.918Z,93523.38
2023-03-10T16:53:58.101Z,93522.75
2023-03-10T16:56:26.311Z,93542.16
2023-03-10T16:58:54.435Z,93534.06
2023-03-10T17:01:24.139Z,93540.13
2023-03-10T17:03:52.528Z,93530.13
2023-03-10T17:06:24.369Z,93513.56
2023-03-10T17:08:53.825Z,93527.59
2023-03-10T17:11:24.248Z,93520.63
2023-03-10T17:13:54.094Z,93529.53
2023-03-10T17:16:24.349Z,93527.97
2023-03-10T17:18:52.507Z,93523.22
2023-03-10T17:21:23.692Z,93526.56
2023-03-10T17:23:51.494Z,93540.06
2023-03-10T17:26:19.897Z,93559.78
2023-03-10T17:28:49.046Z,93557.25
2023-03-10T17:31:20.510Z,93552.97
2023-03-10T17:33:48.430Z,93566.78
2023-03-10T17:36:17.955Z,93582.69
2023-03-10T17:38:47.226Z,93573.78
2023-03-10T17:41:17.057Z,93590.94
2023-03-10T17:43:44.803Z,93578.53
2023-03-10T17:46:15.693Z,93586.31
2023-03-10T17:48:44.027Z,93588.41
2023-03-10T17:51:15.801Z,93609.38
2023-03-10T17:53:43.865Z,93616.81
2023-03-10T17:56:14.567Z,93599.53
2023-03-10T17:58:43.263Z,93609.19
2023-03-10T18:01:12.373Z,93627.28
2023-03-10T18:03:40.066Z,93591.41
2023-03-10T18:06:13.361Z,93628.38
2023-03-10T18:08:41.246Z,93630.75
2023-03-10T18:11:09.789Z,93620.06
2023-03-10T18:13:39.651Z,93627.22
2023-03-10T18:16:08.711Z,93618.50
2023-03-10T18:18:36.341Z,93625.78
2023-03-10T18:21:04.100Z,93601.50
2023-03-10T18:23:31.766Z,93629.28
2023-03-10T18:26:02.483Z,93647.66
2023-03-10T18:28:30.105Z,93631.16
2023-03-10T18:30:59.134Z,93626.06
2023-03-10T18:33:26.832Z,93632.13
2023-03-10T18:35:54.508Z,93624.53
2023-03-10T18:38:22.171Z,93631.69
2023-03-10T18:40:57.900Z,93639.97
2023-03-10T18:43:26.409Z,93642.34
2023-03-10T18:45:54.106Z,93627.09
2023-03-10T18:48:25.554Z,93642.53
2023-03-10T18:50:53.280Z,93607.78
2023-03-10T18:53:21.041Z,93610.91
2023-03-10T18:55:48.912Z,93622.97
2023-03-10T18:58:16.688Z,93639.47
2023-03-10T19:00:44.310Z,93662.13
2023-03-10T19:03:13.509Z,93664.16
2023-03-10T19:05:42.669Z,93671.25
2023-03-10T19:08:11.084Z,93665.03
2023-03-10T19:10:40.185Z,93663.56
2023-03-10T19:13:08.397Z,93656.38
2023-03-10T19:15:38.032Z,93633.81
2023-03-10T19:18:06.041Z,93619.81
2023-03-10T19:20:33.671Z,93620.25
2023-03-10T19:23:02.687Z,93621.53
2023-03-10T19:25:30.361Z,93630.53
2023-03-10T19:27:58.047Z,93625.78
2023-03-10T19:30:26.255Z,93615.81
2023-03-10T19:32:54.126Z,93632.91
2023-03-10T19:35:21.802Z,93649.88
2023-03-10T19:37:52.091Z,93634.97
2023-03-10T19:40:23.110Z,93627.53
2023-03-10T19:42:51.042Z,93602.03
2023-03-10T19:45:20.005Z,93611.84
2023-03-10T19:47:48.424Z,93613.44
2023-03-10T19:50:18.422Z,93617.13
2023-03-10T19:52:46.989Z,93620.56
2023-03-10T19:55:17.782Z,93615.66
2023-03-10T19:57:47.109Z,93620.19
2023-03-10T20:00:17.301Z,93617.69
2023-03-10T20:02:45.577Z,93613.75
2023-03-10T20:05:15.009Z,93604.09
2023-03-10T20:07:44.143Z,93592.19
2023-03-10T20:10:13.012Z,93619.28
2023-03-10T20:12:40.787Z,93634.69
2023-03-10T20:15:11.429Z,93642.91
2023-03-10T20:17:39.587Z,93623.22
2023-03-10T20:20:10.599Z,93622.72
2023-03-10T20:22:39.877Z,93620.19
2023-03-10T20:25:09.122Z,93610.50
2023-03-10T20:27:37.432Z,93624.72
2023-03-10T20:30:07.428Z,93614.72
2023-03-10T20:32:36.775Z,93613.13
2023-03-10T20:35:05.022Z,93611.25
2023-03-10T20:37:33.733Z,93624.53
2023-03-10T20:40:01.405Z,93612.47
2023-03-10T20:42:29.300Z,93640.72
2023-03-10T20:44:56.963Z,93641.38
2023-03-10T20:47:24.844Z,93632.69
2023-03-10T20:49:53.876Z,93640.28
2023-03-10T20:52:21.683Z,93635.19
2023-03-10T20:54:49.441Z,93638.69
2023-03-10T20:57:17.136Z,93638.88
2023-03-10T20:59:44.777Z,93640.97
2023-03-10T21:02:15.761Z,93654.75
2023-03-10T21:04:43.745Z,93654.91
2023-03-10T21:07:12.790Z,93654.28
2023-03-10T21:09:40.604Z,93670.34
2023-03-10T21:12:08.384Z,93678.84
2023-03-10T21:14:36.030Z,93686.31
2023-03-10T21:17:04.999Z,93699.91
2023-03-10T21:19:32.773Z,93708.78
2023-03-10T21:22:03.170Z,93732.13
2023-03-10T21:24:32.521Z,93708.88
2023-03-10T21:27:00.995Z,93727.44
2023-03-10T21:29:29.940Z,93732.63
2023-03-10T21:31:57.688Z,93762.25
2023-03-10T21:34:25.373Z,93786.53
2023-03-10T21:36:53.070Z,93790.75
2023-03-10T21:39:20.888Z,93818.59
2023-03-10T21:41:50.039Z,93822.66
2023-03-10T21:44:17.823Z,93842.91
2023-03-10T21:46:46.146Z,93842.28
2023-03-10T21:49:15.795Z,93850.84
2023-03-10T21:51:43.644Z,93842.28
2023-03-10T21:54:11.660Z,93870.69
2023-03-10T21:56:39.396Z,93866.34
2023-03-10T21:59:08.488Z,93871.38
2023-03-10T22:01:36.257Z,93851.19
2023-03-10T22:04:04.727Z,93870.69
2023-03-10T22:06:32.413Z,93865.50
2023-03-10T22:09:00.192Z,93856.38
2023-03-10T22:11:27.844Z,93883.09
2023-03-10T22:13:55.573Z,93869.56
2023-03-10T22:16:24.904Z,93878.78
2023-03-10T22:18:52.641Z,93876.53
2023-03-10T22:21:20.384Z,93900.41
2023-03-10T22:23:48.080Z,93894.75
2023-03-10T22:26:15.746Z,93903.34
2023-03-10T22:28:43.441Z,93907.91
2023-03-10T22:31:12.078Z,93915.75
2023-03-10T22:33:41.115Z,93921.72
2023-03-10T22:36:12.342Z,93922.59
2023-03-10T22:38:40.215Z,93923.63
2023-03-10T22:41:10.431Z,93939.44
2023-03-10T22:43:38.194Z,93953.47
2023-03-10T22:46:10.908Z,93954.28
2023-03-10T22:48:38.694Z,93962.63
2023-03-10T22:51:09.244Z,93953.59
2023-03-10T22:53:38.240Z,93978.47
2023-03-10T23:00:19.679Z,93985.84
2023-03-10T23:02:48.326Z,93998.19
2023-03-10T23:05:18.372Z,94004.06
2023-03-10T23:07:46.390Z,94008.28
2023-03-10T23:10:18.054Z,94013.91
2023-03-10T23:12:45.809Z,94012.09
2023-03-10T23:15:24.835Z,94016.09
2023-03-10T23:17:55.655Z,94015.63
2023-03-10T23:20:27.081Z,94036.38
2023-03-10T23:22:56.068Z,94061.56
2023-03-10T23:25:26.578Z,94053.28
2023-03-10T23:27:54.450Z,94073.41
2023-03-10T23:30:22.529Z,94080.13
2023-03-10T23:32:51.451Z,94095.66
2023-03-10T23:35:22.686Z,94089.22
2023-03-10T23:37:53.831Z,94079.78
2023-03-10T23:40:23.010Z,94096.97
2023-03-10T23:42:51.228Z,94085.72
2023-03-10T23:45:21.287Z,94072.59
2023-03-10T23:47:49.516Z,94091.91
2023-03-10T23:50:21.023Z,94108.53
2023-03-10T23:52:49.737Z,94102.38
2023-03-10T23:55:19.397Z,94115.25
2023-03-10T23:57:47.328Z,94103.47
